createdAt,value
2023-03-22T00:00:06.717Z,17.67
2023-03-22T00:02:55.715Z,20.92
2023-03-22T00:05:23.124Z,20.02
2023-03-22T00:07:50.355Z,20.38
2023-03-22T00:10:17.843Z,18.45
2023-03-22T00:12:44.875Z,18.83
2023-03-22T00:15:12.290Z,21.00
2023-03-22T00:17:39.348Z,19.00
2023-03-22T00:20:07.246Z,19.45
2023-03-22T00:22:34.348Z,19.27
2023-03-22T00:25:01.666Z,19.38
2023-03-22T00:27:28.779Z,20.88
2023-03-22T00:29:56.139Z,19.58
2023-03-22T00:32:23.347Z,19.33
2023-03-22T00:34:50.993Z,19.25
2023-03-22T00:37:18.057Z,21.17
2023-03-22T00:39:46.412Z,21.88
2023-03-22T00:42:13.459Z,20.48
2023-03-22T00:44:40.884Z,20.08
2023-03-22T00:47:08.202Z,20.73
2023-03-22T00:49:37.421Z,20.95
2023-03-22T00:52:04.527Z,20.33
2023-03-22T00:54:31.896Z,20.23
2023-03-22T00:56:58.912Z,21.60
2023-03-22T00:59:26.532Z,21.48
2023-03-22T01:01:53.788Z,21.80
2023-03-22T01:04:26.172Z,21.30
2023-03-22T01:06:59.393Z,22.45
2023-03-22T01:09:28.963Z,22.83
2023-03-22T01:11:56.562Z,21.88
2023-03-22T01:14:25.863Z,23.13
2023-03-22T01:16:57.624Z,22.80
2023-03-22T01:19:27.544Z,23.20
2023-03-22T01:21:54.752Z,22.25
2023-03-22T01:24:22.851Z,22.77
2023-03-22T01:26:50.338Z,23.27
2023-03-22T01:29:17.999Z,23.25
2023-03-22T01:31:45.321Z,24.63
2023-03-22T01:34:13.768Z,23.83
2023-03-22T01:36:41.207Z,25.50
2023-03-22T01:39:08.844Z,24.67
2023-03-22T01:41:37.552Z,25.08
2023-03-22T01:44:14.629Z,25.08
2023-03-22T01:46:43.316Z,24.67
2023-03-22T01:49:32.397Z,27.80
2023-03-22T01:52:09.162Z,26.70
2023-03-22T01:57:39.635Z,26.13
2023-03-22T02:00:15.501Z,25.13
2023-03-22T02:03:01.830Z,25.58
2023-03-22T02:05:37.061Z,25.40
2023-03-22T02:08:05.072Z,26.80
2023-03-22T02:10:50.061Z,28.25
2023-03-22T02:13:39.021Z,27.08
2023-03-22T02:16:40.675Z,26.52
2023-03-22T02:19:54.225Z,28.92
2023-03-22T02:22:38.794Z,27.60
2023-03-22T02:25:43.044Z,28.45
2023-03-22T02:28:36.434Z,29.10
2023-03-22T02:31:20.457Z,29.00
2023-03-22T02:34:21.256Z,28.88
2023-03-22T02:37:11.648Z,30.50
2023-03-22T02:39:56.554Z,29.08
2023-03-22T02:42:39.471Z,30.50
2023-03-22T02:45:41.242Z,29.20
2023-03-22T02:48:13.530Z,30.80
2023-03-22T02:50:43.310Z,30.40
2023-03-22T02:53:21.374Z,31.67
2023-03-22T02:56:19.138Z,29.33
2023-03-22T02:58:51.208Z,30.90
2023-03-22T03:01:24.494Z,31.20
2023-03-22T03:03:56.535Z,31.83
2023-03-22T03:06:31.108Z,31.55
2023-03-22T03:09:02.791Z,32.80
2023-03-22T03:11:32.345Z,32.90
2023-03-22T03:14:00.933Z,31.73
2023-03-22T03:16:34.921Z,32.65
2023-03-22T03:19:24.128Z,33.63
2023-03-22T03:21:55.817Z,33.22
2023-03-22T03:24:38.035Z,35.75
2023-03-22T03:27:17.176Z,32.55
2023-03-22T03:29:56.669Z,34.88
2023-03-22T03:32:43.058Z,35.47
2023-03-22T03:35:22.465Z,37.03
2023-03-22T03:40:37.597Z,36.47
2023-03-22T03:43:07.136Z,37.55
2023-03-22T03:45:37.035Z,37.60
2023-03-22T03:48:08.984Z,38.92
2023-03-22T03:50:38.374Z,36.75
2023-03-22T03:53:06.304Z,37.58
2023-03-22T03:55:33.812Z,37.88
2023-03-22T03:58:01.394Z,39.53
2023-03-22T04:00:28.540Z,38.75
2023-03-22T04:03:25.436Z,40.35
2023-03-22T04:06:24.832Z,40.75
2023-03-22T04:08:58.039Z,39.90
2023-03-22T04:11:29.870Z,38.63
2023-03-22T04:14:00.556Z,39.83
2023-03-22T04:16:27.613Z,41.45
2023-03-22T04:18:55.156Z,43.72
2023-03-22T04:21:22.805Z,41.45
2023-03-22T04:23:58.298Z,41.53
2023-03-22T04:26:27.031Z,42.90
2023-03-22T04:29:10.906Z,44.33
2023-03-22T04:31:42.840Z,44.80
2023-03-22T04:34:23.426Z,43.38
2023-03-22T04:36:57.100Z,44.95
2023-03-22T04:39:30.991Z,43.58
2023-03-22T04:42:17.986Z,48.75
2023-03-22T04:44:46.736Z,46.55
2023-03-22T04:47:14.114Z,45.08
2023-03-22T04:49:42.191Z,46.28
2023-03-22T04:52:10.667Z,45.10
2023-03-22T04:54:38.739Z,45.03
2023-03-22T04:57:07.141Z,46.85
2023-03-22T04:59:40.510Z,44.92
2023-03-22T05:02:07.749Z,48.30
2023-03-22T05:04:41.521Z,48.30
2023-03-22T05:07:20.759Z,48.13
2023-03-22T05:09:53.141Z,45.28
2023-03-22T05:12:20.281Z,48.83
2023-03-22T05:14:58.723Z,49.08
2023-03-22T05:17:31.985Z,46.80
2023-03-22T05:20:08.669Z,48.20
2023-03-22T05:22:40.426Z,50.05
2023-03-22T05:25:10.761Z,50.45
2023-03-22T05:27:40.930Z,53.70
2023-03-22T05:30:23.127Z,47.42
2023-03-22T05:33:00.589Z,54.30
2023-03-22T05:35:28.183Z,53.47
2023-03-22T05:37:57.777Z,56.38
2023-03-22T05:40:28.197Z,50.13
2023-03-22T05:42:56.202Z,57.53
2023-03-22T05:45:27.122Z,54.10
2023-03-22T05:48:12.376Z,53.42
2023-03-22T05:50:39.888Z,54.92
2023-03-22T05:53:07.604Z,59.83
2023-03-22T05:55:45.028Z,52.03
2023-03-22T05:58:13.113Z,54.65
2023-03-22T06:00:41.665Z,51.70
2023-03-22T06:03:21.243Z,50.75
2023-03-22T06:05:55.592Z,60.50
2023-03-22T06:08:34.724Z,55.30
2023-03-22T06:11:02.150Z,55.72
2023-03-22T06:13:30.537Z,54.45
2023-03-22T06:16:02.726Z,52.08
2023-03-22T06:18:31.064Z,56.65
2023-03-22T06:21:06.034Z,52.83
2023-03-22T06:23:33.105Z,55.08
2023-03-22T06:26:00.615Z,53.25
2023-03-22T06:28:29.872Z,56.83
2023-03-22T06:30:58.860Z,54.83
2023-03-22T06:33:39.212Z,51.15
2023-03-22T06:36:21.839Z,49.85
2023-03-22T06:39:08.955Z,50.35
2023-03-22T06:41:36.495Z,55.17
2023-03-22T06:44:03.759Z,51.30
2023-03-22T06:46:49.930Z,49.55
2023-03-22T06:49:28.778Z,51.03
2023-03-22T06:51:57.942Z,50.30
2023-03-22T06:54:25.483Z,51.05
2023-03-22T06:56:53.951Z,50.72
2023-03-22T06:59:21.650Z,49.15
2023-03-22T07:01:49.497Z,52.55
2023-03-22T07:04:16.996Z,49.45
2023-03-22T07:06:47.230Z,53.13
2023-03-22T07:09:24.945Z,56.15
2023-03-22T07:11:54.519Z,52.45
2023-03-22T07:14:21.909Z,48.47
2023-03-22T07:17:03.373Z,45.80
2023-03-22T07:19:31.886Z,43.88
2023-03-22T07:22:03.630Z,42.35
2023-03-22T07:24:32.806Z,44.30
2023-03-22T07:27:02.463Z,41.05
2023-03-22T07:29:30.325Z,42.70
2023-03-22T07:31:59.233Z,37.60
2023-03-22T07:34:32.164Z,42.83
2023-03-22T07:37:05.481Z,38.45
2023-03-22T07:39:32.941Z,41.55
2023-03-22T07:42:00.494Z,42.20
2023-03-22T07:44:33.180Z,38.35
2023-03-22T07:47:39.997Z,40.08
2023-03-22T07:50:25.639Z,34.28
2023-03-22T07:52:56.643Z,33.38
2023-03-22T07:55:24.049Z,33.50
2023-03-22T07:57:51.426Z,31.35
2023-03-22T08:00:19.408Z,31.10
2023-03-22T08:02:57.046Z,39.45
2023-03-22T08:05:43.218Z,31.15
2023-03-22T08:08:14.713Z,32.55
2023-03-22T08:10:41.984Z,29.92
2023-03-22T08:13:09.406Z,33.35
2023-03-22T08:15:38.507Z,31.52
2023-03-22T08:18:08.688Z,29.38
2023-03-22T08:20:39.814Z,31.10
2023-03-22T08:23:16.884Z,33.97
2023-03-22T08:26:00.444Z,31.00
2023-03-22T08:28:28.025Z,29.60
2023-03-22T08:30:55.125Z,29.52
2023-03-22T08:33:23.913Z,28.33
2023-03-22T08:35:52.399Z,29.35
2023-03-22T08:38:20.459Z,28.23
2023-03-22T08:40:52.171Z,34.72
2023-03-22T08:43:23.176Z,30.40
2023-03-22T08:45:51.042Z,29.77
2023-03-22T08:48:21.052Z,28.85
2023-03-22T08:51:14.542Z,30.73
2023-03-22T08:53:53.755Z,32.08
2023-03-22T08:56:43.659Z,26.35
2023-03-22T08:59:29.667Z,25.73
2023-03-22T09:02:16.395Z,26.40
2023-03-22T09:04:45.888Z,29.35
2023-03-22T09:07:13.807Z,28.17
2023-03-22T09:09:44.960Z,30.05
2023-03-22T09:12:13.673Z,26.60
2023-03-22T09:14:41.815Z,29.00
2023-03-22T09:17:08.876Z,27.67
2023-03-22T09:19:36.986Z,28.40
2023-03-22T09:22:04.620Z,26.92
2023-03-22T09:24:40.561Z,25.52
2023-03-22T09:27:07.879Z,29.30
2023-03-22T09:29:35.487Z,24.80
2023-03-22T09:32:07.117Z,28.10
2023-03-22T09:34:37.264Z,24.98
2023-03-22T09:37:04.895Z,23.23
2023-03-22T09:39:44.578Z,24.85
2023-03-22T09:42:38.338Z,24.17
2023-03-22T09:45:15.335Z,22.92
2023-03-22T09:47:52.786Z,60.13
2023-03-22T09:50:44.778Z,42.08
2023-03-22T09:53:14.515Z,43.97
2023-03-22T09:58:36.184Z,28.40
2023-03-22T10:01:14.771Z,34.15
2023-03-22T10:03:57.429Z,120.55
2023-03-22T10:06:28.231Z,20.73
2023-03-22T10:09:08.620Z,81.88
2023-03-22T10:12:07.087Z,39.42
2023-03-22T10:15:07.985Z,59.97
2023-03-22T10:17:39.007Z,18.77
2023-03-22T10:20:21.691Z,20.83
2023-03-22T10:22:53.204Z,19.23
2023-03-22T10:25:24.910Z,18.88
2023-03-22T10:27:52.952Z,19.38
2023-03-22T10:30:26.238Z,18.88
2023-03-22T10:33:12.278Z,21.73
2023-03-22T10:35:40.080Z,18.33
2023-03-22T10:38:18.037Z,17.38
2023-03-22T10:40:46.215Z,18.58
2023-03-22T10:43:21.219Z,18.63
2023-03-22T10:45:50.816Z,17.08
2023-03-22T10:48:32.203Z,18.83
2023-03-22T10:51:01.173Z,16.95
2023-03-22T10:53:37.124Z,16.58
2023-03-22T10:56:05.208Z,16.33
2023-03-22T10:58:34.252Z,15.60
2023-03-22T11:01:32.437Z,16.20
2023-03-22T11:04:10.629Z,16.50
2023-03-22T11:06:49.948Z,17.17
2023-03-22T11:09:22.493Z,17.45
2023-03-22T11:11:55.424Z,14.98
2023-03-22T11:14:36.876Z,14.50
2023-03-22T11:17:07.887Z,16.90
2023-03-22T11:19:38.136Z,16.38
2023-03-22T11:24:35.914Z,16.38
2023-03-22T11:27:18.299Z,17.42
2023-03-22T11:29:51.908Z,15.20
2023-03-22T11:32:36.761Z,14.10
2023-03-22T11:35:23.837Z,16.85
2023-03-22T11:37:53.691Z,16.90
2023-03-22T11:40:24.789Z,17.92
2023-03-22T11:43:27.170Z,17.30
2023-03-22T11:45:57.882Z,15.90
2023-03-22T11:48:27.826Z,17.08
2023-03-22T11:51:04.526Z,29.25
2023-03-22T11:53:34.447Z,17.55
2023-03-22T11:56:07.414Z,16.40
2023-03-22T11:58:37.506Z,16.92
2023-03-22T12:01:06.801Z,18.30
2023-03-22T12:03:39.528Z,18.77
2023-03-22T12:06:35.003Z,18.05
2023-03-22T12:09:35.823Z,19.08
2023-03-22T12:12:06.715Z,15.73
2023-03-22T12:14:43.739Z,17.67
2023-03-22T12:17:14.724Z,18.67
2023-03-22T12:20:08.558Z,18.15
2023-03-22T12:22:42.123Z,18.45
2023-03-22T12:25:17.561Z,17.33
2023-03-22T12:28:02.201Z,19.23
2023-03-22T12:30:42.635Z,18.15
2023-03-22T12:33:25.856Z,15.98
2023-03-22T12:35:57.864Z,17.38
2023-03-22T12:38:48.332Z,17.75
2023-03-22T12:41:21.543Z,36.78
2023-03-22T12:44:25.135Z,25.92
2023-03-22T12:46:59.284Z,18.38
2023-03-22T12:49:53.975Z,17.25
2023-03-22T12:52:37.694Z,17.42
2023-03-22T12:55:26.269Z,18.80
2023-03-22T12:57:54.804Z,17.67
2023-03-22T13:00:29.210Z,16.02
2023-03-22T13:03:17.709Z,16.75
2023-03-22T13:05:48.029Z,15.85
2023-03-22T13:10:59.010Z,16.27
2023-03-22T13:13:27.823Z,16.73
2023-03-22T13:16:15.601Z,16.07
2023-03-22T13:18:42.768Z,17.42
2023-03-22T13:21:29.396Z,16.13
2023-03-22T13:24:05.912Z,17.67
2023-03-22T13:26:47.429Z,15.60
2023-03-22T13:29:22.360Z,16.95
2023-03-22T13:31:59.926Z,15.75
2023-03-22T13:34:39.309Z,16.30
2023-03-22T13:37:22.008Z,16.10
2023-03-22T13:39:52.491Z,20.00
2023-03-22T13:42:22.524Z,18.80
2023-03-22T13:47:35.448Z,16.67
2023-03-22T13:50:12.226Z,15.07
2023-03-22T13:52:52.961Z,15.85
2023-03-22T13:55:47.909Z,15.32
2023-03-22T13:58:54.163Z,15.60
2023-03-22T14:01:22.448Z,16.25
2023-03-22T14:03:50.970Z,16.25
2023-03-22T14:06:25.716Z,14.88
2023-03-22T14:09:02.081Z,14.90
2023-03-22T14:11:39.235Z,15.95
2023-03-22T14:14:19.418Z,15.13
2023-03-22T14:19:25.788Z,14.40
